Time;durP1;ratioP1;P1;durP2;ratioP2;P2;SDS_P1;SDS_P2;PMS_P1;PMS_P2;Temp;Humidity;BMP_temperature;BMP_pressure;BME280_temperature;BME280_humidity;BME280_pressure;Samples;Min_cycle;Max_cycle;Signal;HPM_P1;HPM_P2
2023/06/26 00:00:32;;;;;;;13.70;8.50;;;14.60;99.90;;;;;;5075220;28;20028;-76
2023/06/26 00:02:58;;;;;;;13.45;9.20;;;14.60;99.90;;;;;;5074892;28;20040;-76
2023/06/26 00:05:23;;;;;;;11.98;9.00;;;14.60;99.90;;;;;;5074826;28;20441;-76
2023/06/26 00:07:49;;;;;;;14.65;7.80;;;14.60;99.90;;;;;;5056939;28;20491;-76
2023/06/26 00:10:15;;;;;;;16.42;9.95;;;14.60;99.90;;;;;;5074814;28;20082;-76
2023/06/26 00:12:40;;;;;;;12.02;8.52;;;14.50;99.90;;;;;;5074687;28;20031;-76
2023/06/26 00:15:07;;;;;;;11.73;9.65;;;14.50;99.90;;;;;;5074692;28;20108;-76
2023/06/26 00:17:36;;;;;;;13.60;8.90;;;14.50;99.90;;;;;;5074611;28;20063;-76
2023/06/26 00:20:03;;;;;;;13.80;8.63;;;14.50;99.90;;;;;;5056739;28;20052;-76
2023/06/26 00:22:29;;;;;;;11.02;8.43;;;14.50;99.90;;;;;;5056656;28;20024;-75
2023/06/26 00:24:54;;;;;;;9.48;8.15;;;14.50;99.90;;;;;;5056561;28;20025;-75
2023/06/26 00:27:20;;;;;;;11.18;8.70;;;14.50;99.90;;;;;;5056864;28;20032;-76
2023/06/26 00:29:46;;;;;;;13.75;8.75;;;14.50;99.90;;;;;;5074397;28;20025;-75
2023/06/26 00:32:11;;;;;;;10.85;8.52;;;14.50;99.90;;;;;;5056852;28;20103;-76
2023/06/26 00:34:37;;;;;;;14.95;8.38;;;14.40;99.90;;;;;;5074205;28;20024;-76
2023/06/26 00:37:03;;;;;;;13.68;8.52;;;14.40;99.90;;;;;;5073915;28;20025;-77
2023/06/26 00:39:29;;;;;;;11.45;8.65;;;14.40;99.90;;;;;;5074561;28;20027;-76
2023/06/26 00:41:55;;;;;;;9.60;8.57;;;14.40;99.90;;;;;;5074394;28;20017;-76
2023/06/26 00:44:21;;;;;;;10.10;8.68;;;14.30;99.90;;;;;;5074229;28;20068;-76
2023/06/26 00:46:47;;;;;;;13.55;8.65;;;14.30;99.90;;;;;;5056183;28;20584;-76
2023/06/26 00:49:13;;;;;;;10.52;8.00;;;14.30;99.90;;;;;;5073928;28;20092;-76
2023/06/26 00:51:39;;;;;;;10.73;8.32;;;14.30;99.90;;;;;;5074234;28;20032;-76
2023/06/26 00:54:05;;;;;;;14.60;9.20;;;14.30;99.90;;;;;;5056239;28;20043;-76
2023/06/26 00:56:32;;;;;;;12.98;8.80;;;14.30;99.90;;;;;;5073943;28;20016;-75
2023/06/26 00:58:58;;;;;;;9.35;7.85;;;14.30;99.90;;;;;;5074010;28;20025;-76
2023/06/26 01:01:25;;;;;;;10.35;8.15;;;14.20;99.90;;;;;;5055244;28;20027;-76
2023/06/26 01:03:52;;;;;;;13.18;8.10;;;14.20;99.90;;;;;;5073923;28;20024;-75
2023/06/26 01:06:21;;;;;;;10.32;8.75;;;14.20;99.90;;;;;;5073899;28;20023;-75
2023/06/26 01:08:48;;;;;;;9.80;8.60;;;14.20;99.90;;;;;;5073929;28;20021;-76
2023/06/26 01:11:15;;;;;;;11.52;9.23;;;14.20;99.90;;;;;;5074094;28;20078;-76
2023/06/26 01:13:44;;;;;;;11.00;8.55;;;14.20;99.90;;;;;;5073555;28;20027;-76
2023/06/26 01:16:10;;;;;;;13.68;8.18;;;14.10;99.90;;;;;;5074166;28;20069;-76
2023/06/26 01:18:41;;;;;;;15.02;8.00;;;14.10;99.90;;;;;;5073878;28;20073;-76
2023/06/26 01:21:08;;;;;;;11.07;8.93;;;14.10;99.90;;;;;;5055873;28;20109;-76
2023/06/26 01:23:49;;;;;;;11.88;8.35;;;14.10;99.90;;;;;;5055844;28;20021;-76
2023/06/26 01:26:21;;;;;;;11.85;8.40;;;14.10;99.90;;;;;;5073788;28;20016;-76
2023/06/26 01:28:49;;;;;;;9.70;8.63;;;14.00;99.90;;;;;;5073698;28;20017;-76
2023/06/26 01:31:15;;;;;;;12.57;9.05;;;14.00;99.90;;;;;;5073702;28;20425;-76
2023/06/26 01:33:42;;;;;;;9.93;8.07;;;14.00;99.90;;;;;;5055703;28;20024;-76
2023/06/26 01:36:08;;;;;;;9.50;7.93;;;14.00;99.90;;;;;;5073651;28;20020;-76
2023/06/26 01:38:36;;;;;;;10.75;7.75;;;13.90;99.90;;;;;;5055804;28;20024;-76
2023/06/26 01:41:06;;;;;;;10.83;8.07;;;13.90;99.90;;;;;;5055578;28;20024;-76
2023/06/26 01:44:05;;;;;;;12.45;8.57;;;13.90;99.90;;;;;;5073864;28;20021;-76
2023/06/26 01:46:37;;;;;;;10.48;8.07;;;13.90;99.90;;;;;;5073350;28;20031;-76
2023/06/26 01:49:44;;;;;;;11.98;8.32;;;13.90;99.90;;;;;;5073464;28;20445;-76
2023/06/26 01:52:17;;;;;;;10.55;8.27;;;13.80;99.90;;;;;;5073596;28;20041;-76
2023/06/26 01:55:08;;;;;;;8.48;7.55;;;13.90;99.90;;;;;;5073161;28;20337;-76
2023/06/26 01:57:36;;;;;;;11.30;7.95;;;13.80;99.90;;;;;;5073290;28;20025;-76
2023/06/26 02:00:03;;;;;;;10.95;7.47;;;13.80;99.90;;;;;;5072236;28;20028;-76
2023/06/26 02:02:29;;;;;;;15.48;8.05;;;13.80;99.90;;;;;;5072150;28;20449;-76
2023/06/26 02:04:55;;;;;;;8.50;7.32;;;13.70;99.90;;;;;;5073654;28;20048;-76
2023/06/26 02:07:21;;;;;;;12.80;8.23;;;13.70;99.90;;;;;;5072102;28;20074;-76
2023/06/26 02:09:46;;;;;;;15.52;8.80;;;13.60;99.90;;;;;;5073440;28;20031;-76
2023/06/26 02:12:12;;;;;;;9.77;7.93;;;13.70;99.90;;;;;;5073281;28;20017;-76
2023/06/26 02:14:38;;;;;;;11.05;8.82;;;13.60;99.90;;;;;;5077048;28;20460;-76
2023/06/26 02:17:04;;;;;;;11.35;8.13;;;13.60;99.90;;;;;;5076970;28;20032;-76
2023/06/26 02:19:30;;;;;;;11.45;8.38;;;13.60;99.90;;;;;;5076693;28;20495;-76
2023/06/26 02:21:56;;;;;;;10.95;8.63;;;13.60;99.90;;;;;;5077171;28;20021;-76
2023/06/26 02:24:21;;;;;;;8.85;7.95;;;13.60;99.90;;;;;;5076860;28;20016;-76
2023/06/26 02:26:48;;;;;;;12.13;8.38;;;13.50;99.90;;;;;;5076637;28;20047;-76
2023/06/26 02:29:14;;;;;;;9.10;8.15;;;13.50;99.90;;;;;;5076932;28;20448;-76
2023/06/26 02:31:40;;;;;;;11.38;8.35;;;13.50;99.90;;;;;;5076734;28;20031;-76
2023/06/26 02:34:06;;;;;;;13.00;9.05;;;13.50;99.90;;;;;;5076786;28;20103;-76
2023/06/26 02:36:32;;;;;;;12.73;8.90;;;13.50;99.90;;;;;;5075024;28;20024;-76
2023/06/26 02:38:58;;;;;;;12.32;8.50;;;13.40;99.90;;;;;;5076572;28;20021;-76
2023/06/26 02:41:23;;;;;;;13.30;8.82;;;13.50;99.90;;;;;;5075536;28;20051;-76
2023/06/26 02:43:49;;;;;;;11.75;8.98;;;13.40;99.90;;;;;;5076445;28;20016;-76
2023/06/26 02:46:14;;;;;;;12.75;8.93;;;13.40;99.90;;;;;;5075153;28;20475;-77
2023/06/26 02:48:40;;;;;;;10.25;8.85;;;13.40;99.90;;;;;;5076437;28;20036;-76
2023/06/26 02:51:07;;;;;;;12.75;8.77;;;13.40;99.90;;;;;;5092097;28;20047;-76
2023/06/26 02:53:32;;;;;;;12.02;8.57;;;13.40;99.90;;;;;;5096731;28;20024;-76
2023/06/26 02:55:58;;;;;;;12.70;8.52;;;13.40;99.90;;;;;;5096490;28;20047;-76
2023/06/26 02:58:24;;;;;;;11.60;8.80;;;13.40;99.90;;;;;;5095061;28;20470;-76
2023/06/26 03:00:49;;;;;;;11.93;8.77;;;13.40;99.90;;;;;;5096449;28;20032;-76
2023/06/26 03:03:15;;;;;;;13.38;8.93;;;13.40;99.90;;;;;;5095098;28;20016;-76
2023/06/26 03:05:40;;;;;;;12.25;9.05;;;13.40;99.90;;;;;;5096283;28;20089;-76
2023/06/26 03:08:06;;;;;;;14.32;9.25;;;13.40;99.90;;;;;;5096208;28;20027;-76
2023/06/26 03:10:32;;;;;;;12.48;8.43;;;13.40;99.90;;;;;;5096309;28;20440;-76
2023/06/26 03:12:57;;;;;;;10.05;8.30;;;13.40;99.90;;;;;;5096478;28;20020;-76
2023/06/26 03:15:23;;;;;;;14.65;8.38;;;13.40;99.90;;;;;;5094560;28;20455;-76
2023/06/26 03:17:48;;;;;;;9.45;7.88;;;13.40;99.90;;;;;;5094807;28;20024;-76
2023/06/26 03:20:15;;;;;;;10.45;8.23;;;13.40;99.90;;;;;;5096219;28;20063;-76
2023/06/26 03:22:41;;;;;;;10.88;8.27;;;13.50;99.90;;;;;;5094772;28;20020;-76
2023/06/26 03:25:06;;;;;;;12.27;7.93;;;13.50;99.90;;;;;;5095196;28;20095;-76
2023/06/26 03:27:32;;;;;;;12.27;9.02;;;13.50;99.90;;;;;;5094375;28;20020;-76
2023/06/26 03:29:58;;;;;;;11.88;8.52;;;13.50;99.90;;;;;;5096160;28;20084;-76
2023/06/26 03:32:23;;;;;;;11.30;8.70;;;13.50;99.90;;;;;;5094662;28;20028;-76
2023/06/26 03:34:49;;;;;;;12.20;9.05;;;13.50;99.90;;;;;;5095431;28;20050;-76
2023/06/26 03:37:15;;;;;;;10.23;7.93;;;13.50;99.90;;;;;;5095607;28;20020;-76
2023/06/26 03:39:40;;;;;;;11.73;8.18;;;13.60;99.90;;;;;;5095713;28;20028;-76
2023/06/26 03:42:06;;;;;;;9.60;7.90;;;13.50;99.90;;;;;;5094284;28;20030;-76
2023/06/26 03:44:32;;;;;;;10.10;8.50;;;13.60;99.90;;;;;;5095621;28;20073;-76
2023/06/26 03:46:58;;;;;;;14.30;8.15;;;13.60;99.90;;;;;;5094230;28;20028;-76
2023/06/26 03:49:23;;;;;;;12.85;7.93;;;13.60;99.90;;;;;;5092421;28;20053;-76
2023/06/26 03:51:49;;;;;;;10.50;8.38;;;13.60;99.90;;;;;;5057435;28;20093;-76
2023/06/26 03:54:15;;;;;;;11.57;8.60;;;13.60;99.90;;;;;;5057221;28;20055;-76
2023/06/26 03:56:40;;;;;;;10.23;7.82;;;13.60;99.90;;;;;;5074978;28;20021;-76
2023/06/26 03:59:06;;;;;;;9.10;7.80;;;13.60;99.90;;;;;;5074678;28;20020;-76
2023/06/26 04:01:32;;;;;;;11.80;7.93;;;13.70;99.90;;;;;;5056960;28;20032;-76
2023/06/26 04:03:57;;;;;;;10.60;7.68;;;13.80;99.90;;;;;;5056639;28;20051;-76
2023/06/26 04:06:23;;;;;;;10.40;8.13;;;13.80;99.90;;;;;;5056982;28;20119;-76
2023/06/26 04:08:49;;;;;;;10.75;8.27;;;13.90;99.90;;;;;;5074824;28;20085;-76
2023/06/26 04:11:14;;;;;;;9.98;8.70;;;13.90;99.90;;;;;;5056842;28;20436;-76
2023/06/26 04:13:40;;;;;;;12.98;6.93;;;13.90;99.90;;;;;;5074902;28;20023;-84
2023/06/26 04:16:06;;;;;;;10.70;8.40;;;14.00;99.90;;;;;;5074737;28;20352;-70
2023/06/26 04:18:32;;;;;;;13.10;7.55;;;14.00;99.90;;;;;;5074594;28;20021;-77
2023/06/26 04:21:18;;;;;;;8.98;7.82;;;14.10;99.90;;;;;;5056841;28;20364;-77
2023/06/26 04:23:44;;;;;;;11.80;8.02;;;14.20;99.90;;;;;;5073996;28;20037;-79
2023/06/26 04:26:13;;;;;;;13.02;8.43;;;14.30;99.90;;;;;;5056590;28;20020;-79
2023/06/26 04:28:38;;;;;;;12.68;7.85;;;14.40;99.90;;;;;;5074601;28;20024;-78
2023/06/26 04:31:04;;;;;;;10.27;7.72;;;14.40;99.90;;;;;;5056455;28;20024;-79
2023/06/26 04:33:30;;;;;;;9.25;7.78;;;14.50;99.90;;;;;;5074515;28;20048;-77
2023/06/26 04:35:55;;;;;;;10.63;7.70;;;14.50;99.90;;;;;;5074540;28;20043;-78
2023/06/26 04:38:21;;;;;;;10.35;7.60;;;14.60;99.90;;;;;;5056172;28;20456;-78
2023/06/26 04:40:48;;;;;;;9.15;7.45;;;14.70;99.90;;;;;;5056525;28;20020;-76
2023/06/26 04:43:13;;;;;;;9.32;7.78;;;14.70;99.90;;;;;;5074077;28;20024;-76
2023/06/26 04:45:39;;;;;;;11.95;8.15;;;14.80;99.90;;;;;;5074118;28;20085;-77
2023/06/26 04:48:11;;;;;;;9.40;7.15;;;14.90;99.90;;;;;;5055758;28;20025;-77
2023/06/26 04:50:37;;;;;;;10.05;7.47;;;14.90;99.90;;;;;;5073245;28;20056;-77
2023/06/26 04:53:02;;;;;;;10.88;7.40;;;15.00;99.90;;;;;;5073369;28;20020;-77
2023/06/26 04:55:28;;;;;;;12.30;7.68;;;15.10;99.90;;;;;;5055284;28;20064;-77
2023/06/26 04:57:54;;;;;;;9.43;7.80;;;15.10;99.90;;;;;;5055628;28;20032;-77
2023/06/26 05:00:19;;;;;;;8.57;7.18;;;15.20;99.90;;;;;;5055728;28;20033;-76
2023/06/26 05:02:46;;;;;;;10.00;7.35;;;15.20;99.90;;;;;;5073897;28;20052;-76
2023/06/26 05:05:11;;;;;;;10.52;6.95;;;15.30;99.90;;;;;;5073749;28;20028;-77
2023/06/26 05:07:38;;;;;;;8.07;7.28;;;15.50;99.90;;;;;;5073766;28;20028;-76
2023/06/26 05:10:04;;;;;;;8.75;7.68;;;15.60;99.90;;;;;;5055779;28;20032;-77
2023/06/26 05:12:30;;;;;;;9.07;7.35;;;15.60;99.90;;;;;;5055657;28;20025;-77
2023/06/26 05:14:55;;;;;;;9.82;7.38;;;15.70;99.90;;;;;;5073660;28;20025;-77
2023/06/26 05:17:21;;;;;;;8.85;7.43;;;15.80;99.90;;;;;;5073506;28;20052;-77
2023/06/26 05:19:46;;;;;;;9.35;7.15;;;15.90;99.90;;;;;;5055644;28;20456;-76
2023/06/26 05:22:17;;;;;;;8.68;7.45;;;16.10;99.90;;;;;;5055817;28;20124;-76
2023/06/26 05:24:46;;;;;;;10.30;7.70;;;16.20;99.90;;;;;;5073620;28;20020;-76
2023/06/26 05:27:19;;;;;;;15.23;7.50;;;16.30;99.90;;;;;;5073331;28;20036;-77
2023/06/26 05:29:45;;;;;;;11.45;7.93;;;16.40;99.90;;;;;;5073832;28;20017;-77
2023/06/26 05:32:12;;;;;;;13.55;8.00;;;16.60;99.90;;;;;;5073566;28;20028;-76
2023/06/26 05:34:39;;;;;;;11.23;8.02;;;16.70;99.90;;;;;;5055700;28;20024;-76
2023/06/26 05:37:06;;;;;;;9.77;7.07;;;16.80;99.90;;;;;;5073196;28;20115;-76
2023/06/26 05:39:32;;;;;;;11.60;7.38;;;17.00;99.90;;;;;;5073116;28;20392;-76
2023/06/26 05:41:58;;;;;;;12.32;7.57;;;17.10;99.90;;;;;;5055509;28;20035;-76
2023/06/26 05:44:24;;;;;;;12.00;7.43;;;17.30;99.90;;;;;;5055587;28;20031;-76
2023/06/26 05:46:49;;;;;;;8.30;6.75;;;17.40;99.90;;;;;;5055911;28;20074;-76
2023/06/26 05:49:15;;;;;;;10.45;7.40;;;17.60;99.90;;;;;;5076506;28;20021;-77
2023/06/26 05:51:41;;;;;;;12.77;7.15;;;17.80;99.90;;;;;;5077149;28;20039;-76
2023/06/26 05:54:07;;;;;;;9.93;7.22;;;17.90;99.90;;;;;;5077449;28;20388;-76
2023/06/26 05:56:33;;;;;;;9.00;7.55;;;18.10;99.90;;;;;;5077762;28;20029;-76
2023/06/26 05:58:59;;;;;;;10.23;7.70;;;18.20;99.90;;;;;;5077230;28;20028;-76
2023/06/26 06:01:25;;;;;;;7.97;7.13;;;18.40;99.90;;;;;;5071220;28;20039;-76
2023/06/26 06:03:50;;;;;;;11.73;7.82;;;18.50;99.90;;;;;;5041010;28;20358;-76
2023/06/26 06:06:17;;;;;;;9.40;7.75;;;18.70;99.90;;;;;;5043667;28;20070;-76
2023/06/26 06:08:42;;;;;;;12.88;7.47;;;18.90;99.90;;;;;;5043078;28;20025;-76
2023/06/26 06:11:08;;;;;;;10.95;7.45;;;19.00;99.90;;;;;;5056924;28;20017;-76
2023/06/26 06:13:34;;;;;;;16.40;7.68;;;19.10;99.90;;;;;;5057509;28;20064;-76
2023/06/26 06:15:59;;;;;;;9.48;7.43;;;19.30;99.90;;;;;;5056832;28;20032;-77
2023/06/26 06:18:25;;;;;;;10.05;7.10;;;19.40;99.90;;;;;;5038926;28;20433;-76
2023/06/26 06:20:50;;;;;;;9.00;6.97;;;19.70;99.90;;;;;;5038901;28;20504;-76
2023/06/26 06:23:16;;;;;;;8.50;7.55;;;20.20;99.90;;;;;;5056646;28;20074;-76
2023/06/26 06:25:42;;;;;;;10.27;7.03;;;20.70;99.90;;;;;;5056224;28;20025;-76
2023/06/26 06:28:07;;;;;;;7.82;6.97;;;21.30;99.90;;;;;;5038768;28;20076;-77
2023/06/26 06:30:33;;;;;;;7.40;6.70;;;21.80;99.90;;;;;;5056552;28;20036;-74
2023/06/26 06:32:58;;;;;;;10.23;7.35;;;22.20;99.90;;;;;;5056398;28;20052;-74
2023/06/26 06:35:24;;;;;;;8.43;6.90;;;22.60;99.90;;;;;;5056442;28;20025;-74
2023/06/26 06:37:50;;;;;;;7.50;6.70;;;23.00;99.90;;;;;;5056378;28;20029;-74
2023/06/26 06:40:16;;;;;;;6.85;6.25;;;23.30;99.90;;;;;;5038511;28;20119;-77
2023/06/26 06:42:42;;;;;;;6.93;6.22;;;23.60;99.90;;;;;;5038560;28;20035;-77
2023/06/26 06:45:08;;;;;;;9.65;6.78;;;23.70;99.90;;;;;;5039072;28;20029;-77
2023/06/26 06:47:34;;;;;;;6.93;6.30;;;24.00;99.90;;;;;;5056063;28;20427;-77
2023/06/26 06:50:07;;;;;;;8.57;6.75;;;24.10;99.90;;;;;;5055953;28;20049;-76
2023/06/26 06:52:38;;;;;;;7.75;6.25;;;24.20;99.90;;;;;;5056611;28;20024;-77
2023/06/26 06:55:06;;;;;;;8.65;6.07;;;24.10;99.90;;;;;;5038671;28;20079;-76
2023/06/26 06:57:35;;;;;;;6.57;5.85;;;24.20;99.90;;;;;;5056287;28;20120;-77
2023/06/26 07:00:04;;;;;;;7.57;5.45;;;24.40;99.80;;;;;;5037111;28;20041;-77
2023/06/26 07:02:30;;;;;;;;;;;24.60;98.10;;;;;;5056598;28;20056;-77
2023/06/26 07:04:55;;;;;;;6.57;5.47;;;24.70;97.40;;;;;;5055843;28;20304;-76
2023/06/26 07:07:21;;;;;;;6.30;5.70;;;24.80;97.30;;;;;;5056213;28;20074;-76
2023/06/26 07:09:47;;;;;;;4.80;4.40;;;25.10;96.80;;;;;;5055965;28;20048;-76
2023/06/26 07:12:12;;;;;;;5.78;5.18;;;25.30;93.70;;;;;;5038160;28;20380;-76
2023/06/26 07:14:39;;;;;;;5.15;4.65;;;25.10;93.50;;;;;;5037970;28;20029;-77
2023/06/26 07:17:05;;;;;;;7.07;4.57;;;25.20;91.90;;;;;;5055413;28;20472;-77
2023/06/26 07:19:30;;;;;;;5.28;4.18;;;25.40;91.70;;;;;;5056205;28;20033;-77
2023/06/26 07:21:56;;;;;;;4.88;4.38;;;25.60;90.90;;;;;;5037741;28;20119;-76
2023/06/26 07:24:22;;;;;;;4.95;4.15;;;25.80;90.10;;;;;;5055603;28;20025;-77
2023/06/26 07:26:47;;;;;;;5.78;4.30;;;26.10;89.50;;;;;;5037724;28;20095;-77
2023/06/26 07:29:13;;;;;;;5.68;4.00;;;26.40;85.70;;;;;;5037758;28;20115;-77
2023/06/26 07:31:38;;;;;;;4.05;3.65;;;26.50;83.30;;;;;;5037698;28;20120;-76
2023/06/26 07:34:04;;;;;;;3.92;3.53;;;26.70;83.20;;;;;;5037649;28;20031;-77
2023/06/26 07:36:30;;;;;;;4.70;3.13;;;27.00;79.20;;;;;;5037469;28;20032;-77
2023/06/26 07:38:55;;;;;;;4.72;4.18;;;27.40;77.10;;;;;;5038058;28;20487;-77
2023/06/26 07:41:21;;;;;;;3.85;3.60;;;27.70;77.80;;;;;;5055367;28;20047;-77
2023/06/26 07:43:46;;;;;;;4.15;3.75;;;28.20;76.90;;;;;;5055784;28;20135;-77
2023/06/26 07:46:12;;;;;;;3.38;3.08;;;28.50;72.90;;;;;;5055163;28;20059;-77
2023/06/26 07:48:37;;;;;;;8.88;3.63;;;28.60;68.70;;;;;;5055447;28;20094;-77
2023/06/26 07:51:03;;;;;;;4.07;3.53;;;28.70;69.20;;;;;;5054953;28;20438;-77
2023/06/26 07:53:29;;;;;;;5.00;3.75;;;28.50;68.60;;;;;;5055059;28;20029;-77
2023/06/26 07:55:54;;;;;;;3.15;2.95;;;28.40;67.70;;;;;;5037044;28;20048;-77
2023/06/26 07:58:20;;;;;;;3.55;3.25;;;28.60;65.80;;;;;;5054855;28;20114;-78
2023/06/26 08:00:45;;;;;;;4.15;3.85;;;28.80;65.50;;;;;;5054571;28;20389;-78
2023/06/26 08:03:11;;;;;;;4.22;3.78;;;29.10;65.10;;;;;;5054711;28;20025;-78
2023/06/26 08:05:37;;;;;;;4.60;4.22;;;29.30;64.40;;;;;;5037202;28;20037;-78
2023/06/26 08:08:03;;;;;;;4.30;3.85;;;29.20;65.10;;;;;;5054799;28;20501;-78
2023/06/26 08:10:30;;;;;;;5.10;4.57;;;29.40;66.10;;;;;;5054217;28;20025;-78
2023/06/26 08:12:56;;;;;;;7.10;4.65;;;29.80;65.50;;;;;;5054887;28;20372;-78
2023/06/26 08:15:21;;;;;;;5.88;5.13;;;30.20;64.80;;;;;;5037728;28;20028;-78
2023/06/26 08:17:47;;;;;;;5.05;4.55;;;30.10;64.40;;;;;;5054641;28;20420;-78
2023/06/26 08:20:13;;;;;;;5.20;4.80;;;30.10;64.60;;;;;;5054674;28;20025;-79
2023/06/26 08:22:39;;;;;;;5.97;4.90;;;30.30;64.50;;;;;;5054653;28;20301;-79
2023/06/26 08:25:05;;;;;;;5.32;4.82;;;30.40;63.90;;;;;;5054466;28;20036;-78
2023/06/26 08:27:32;;;;;;;5.63;5.20;;;30.50;63.10;;;;;;5036568;28;20071;-79
2023/06/26 08:29:58;;;;;;;4.72;4.32;;;30.80;62.40;;;;;;5054645;28;20109;-78
2023/06/26 08:32:25;;;;;;;5.28;4.88;;;30.70;62.10;;;;;;5054503;28;20021;-78
2023/06/26 08:34:50;;;;;;;6.13;4.78;;;30.70;62.10;;;;;;5036479;28;20036;-79
2023/06/26 08:37:16;;;;;;;5.50;5.05;;;30.40;62.90;;;;;;5054791;28;20082;-78
2023/06/26 08:39:41;;;;;;;4.97;4.47;;;30.60;62.20;;;;;;5054418;28;20107;-78
2023/06/26 08:42:07;;;;;;;5.28;4.80;;;30.80;60.60;;;;;;5054006;28;20054;-78
2023/06/26 08:44:33;;;;;;;6.47;5.10;;;30.90;60.40;;;;;;5036273;28;20171;-68
2023/06/26 08:47:03;;;;;;;5.68;4.78;;;31.00;61.50;;;;;;5053838;28;20068;-68
2023/06/26 08:49:51;;;;;;;5.25;4.60;;;31.10;60.70;;;;;;5054189;28;20127;-68
2023/06/26 08:52:23;;;;;;;4.82;4.30;;;31.30;60.40;;;;;;5054041;28;20024;-69
2023/06/26 08:54:57;;;;;;;6.38;4.55;;;31.50;60.10;;;;;;5053935;28;20032;-68
2023/06/26 08:57:24;;;;;;;7.90;4.30;;;31.80;57.50;;;;;;5053701;28;20029;-68
2023/06/26 08:59:51;;;;;;;4.43;4.03;;;31.70;57.50;;;;;;5054021;28;20029;-68
2023/06/26 09:02:17;;;;;;;7.70;4.35;;;31.70;57.50;;;;;;5053944;28;20025;-68
2023/06/26 09:04:42;;;;;;;4.47;3.80;;;32.10;57.20;;;;;;5035699;28;20384;-68
2023/06/26 09:07:09;;;;;;;5.85;4.97;;;32.10;56.20;;;;;;5053754;28;20029;-68
2023/06/26 09:09:35;;;;;;;4.60;4.20;;;32.20;56.50;;;;;;5053713;28;20051;-68
2023/06/26 09:12:03;;;;;;;7.10;4.28;;;32.30;55.20;;;;;;5054029;28;20053;-68
2023/06/26 09:14:29;;;;;;;4.70;4.22;;;32.10;55.10;;;;;;5035919;28;20044;-68
2023/06/26 09:16:55;;;;;;;7.10;4.72;;;32.20;54.40;;;;;;5053229;28;20115;-68
2023/06/26 09:19:20;;;;;;;6.30;4.25;;;32.30;54.50;;;;;;5053539;28;20064;-68
2023/06/26 09:21:50;;;;;;;5.22;3.88;;;32.30;55.10;;;;;;5035228;28;20036;-68
2023/06/26 09:24:16;;;;;;;4.60;4.10;;;31.90;55.30;;;;;;5052829;28;20487;-68
2023/06/26 09:26:42;;;;;;;4.35;3.95;;;32.00;55.00;;;;;;5052965;28;20104;-68
2023/06/26 09:29:09;;;;;;;4.18;3.88;;;32.00;55.00;;;;;;5053120;28;20060;-68
2023/06/26 09:31:39;;;;;;;6.40;3.88;;;32.30;55.20;;;;;;5053536;28;20091;-68
2023/06/26 09:34:05;;;;;;;4.22;3.83;;;32.30;53.60;;;;;;5053626;28;20074;-65
2023/06/26 09:36:36;;;;;;;5.00;4.40;;;32.70;52.70;;;;;;5035533;28;20479;-66
2023/06/26 09:39:10;;;;;;;4.05;3.60;;;32.80;53.30;;;;;;5053394;28;20029;-65
2023/06/26 09:41:41;;;;;;;4.15;3.78;;;33.20;51.80;;;;;;5053472;28;20029;-65
2023/06/26 09:44:10;;;;;;;3.65;3.35;;;33.40;51.20;;;;;;5053737;28;20036;-66
2023/06/26 09:46:37;;;;;;;4.30;3.90;;;33.40;51.10;;;;;;5053367;28;20036;-65
2023/06/26 09:49:08;;;;;;;4.20;3.80;;;33.60;52.20;;;;;;5053051;28;20025;-65
2023/06/26 09:51:35;;;;;;;5.13;3.70;;;33.60;50.60;;;;;;5053624;28;20397;-65
2023/06/26 09:54:02;;;;;;;4.20;3.65;;;33.30;50.90;;;;;;5053282;28;20032;-65
2023/06/26 09:56:28;;;;;;;4.03;3.63;;;33.60;50.30;;;;;;5052370;28;20422;-65
2023/06/26 09:58:59;;;;;;;3.97;3.58;;;33.50;50.00;;;;;;5053212;28;20033;-65
2023/06/26 10:01:29;;;;;;;5.20;4.22;;;33.30;49.90;;;;;;5053203;28;20118;-66
2023/06/26 10:03:58;;;;;;;4.80;3.60;;;33.60;48.90;;;;;;5051875;28;20025;-71
2023/06/26 10:06:35;;;;;;;3.38;3.17;;;33.60;48.80;;;;;;5053117;28;20029;-71
2023/06/26 10:09:02;;;;;;;4.18;3.78;;;33.60;48.20;;;;;;5052970;28;20033;-71
2023/06/26 10:11:53;;;;;;;3.65;3.35;;;33.40;48.10;;;;;;5053358;28;20029;-70
2023/06/26 10:14:20;;;;;;;3.78;3.05;;;33.60;48.30;;;;;;5038676;28;20048;-70
2023/06/26 10:16:48;;;;;;;3.60;3.30;;;33.80;47.80;;;;;;5051528;28;20029;-70
2023/06/26 10:19:18;;;;;;;3.60;3.30;;;34.30;46.60;;;;;;5053055;28;20033;-70
2023/06/26 10:21:45;;;;;;;3.55;3.28;;;34.50;46.10;;;;;;5053085;28;20025;-70
2023/06/26 10:24:13;;;;;;;4.60;3.53;;;34.10;45.60;;;;;;5052538;28;20021;-70
2023/06/26 10:26:45;;;;;;;3.90;3.50;;;33.40;48.10;;;;;;5051314;28;20039;-70
2023/06/26 10:29:12;;;;;;;6.32;3.92;;;33.30;48.20;;;;;;5052817;28;20088;-70
2023/06/26 10:31:42;;;;;;;4.53;4.23;;;33.10;48.40;;;;;;5052483;28;20020;-70
2023/06/26 10:34:08;;;;;;;4.22;3.80;;;32.50;48.90;;;;;;5052797;28;20044;-70
2023/06/26 10:36:36;;;;;;;4.32;3.88;;;32.60;49.60;;;;;;5056557;28;20480;-70
2023/06/26 10:39:06;;;;;;;3.60;3.30;;;32.80;49.30;;;;;;5055116;28;20028;-70
2023/06/26 10:41:42;;;;;;;3.70;3.40;;;32.70;48.10;;;;;;5056297;28;20473;-70
2023/06/26 10:44:16;;;;;;;3.33;3.03;;;32.80;47.90;;;;;;5056416;28;20017;-70
2023/06/26 10:46:54;;;;;;;3.80;2.95;;;32.70;46.90;;;;;;5056473;28;20033;-70
2023/06/26 10:49:24;;;;;;;4.15;3.30;;;33.20;47.90;;;;;;5054689;28;20029;-70
2023/06/26 10:51:51;;;;;;;3.58;3.28;;;33.40;47.10;;;;;;5056575;28;20026;-70
2023/06/26 10:54:18;;;;;;;3.50;3.20;;;33.20;47.40;;;;;;5055929;28;20384;-70
2023/06/26 10:56:46;;;;;;;3.65;3.35;;;33.10;47.00;;;;;;5056088;28;20035;-70
2023/06/26 10:59:20;;;;;;;4.10;3.73;;;33.30;47.50;;;;;;5038220;28;20552;-69
2023/06/26 11:02:04;;;;;;;4.15;3.47;;;33.20;47.50;;;;;;5056084;28;20264;-69
2023/06/26 11:04:53;;;;;;;3.55;3.17;;;33.30;47.10;;;;;;5056384;28;20029;-70
2023/06/26 11:07:23;;;;;;;4.20;3.20;;;33.60;46.20;;;;;;5038031;28;20051;-69
2023/06/26 11:10:21;;;;;;;4.43;3.28;;;33.80;46.00;;;;;;5055646;28;20416;-70
2023/06/26 11:12:48;;;;;;;3.53;3.22;;;33.70;45.80;;;;;;5051098;28;20048;-69
2023/06/26 11:15:16;;;;;;;5.47;3.55;;;33.70;46.10;;;;;;5055822;28;20415;-69
2023/06/26 11:17:42;;;;;;;3.92;3.63;;;34.20;45.60;;;;;;5055928;28;20122;-69
2023/06/26 11:20:13;;;;;;;3.22;3.03;;;34.20;44.60;;;;;;5037817;28;20033;-69
2023/06/26 11:22:40;;;;;;;3.40;3.10;;;34.40;44.70;;;;;;5055656;28;20368;-69
2023/06/26 11:25:07;;;;;;;4.50;3.08;;;35.10;44.50;;;;;;5055849;28;20029;-69
2023/06/26 11:27:43;;;;;;;3.25;2.60;;;35.80;43.70;;;;;;5056073;28;20059;-69
2023/06/26 11:30:11;;;;;;;4.13;3.58;;;36.00;42.20;;;;;;5055583;28;20060;-69
2023/06/26 11:32:38;;;;;;;4.03;3.70;;;35.70;43.60;;;;;;5055600;28;20025;-69
2023/06/26 11:35:04;;;;;;;4.53;3.20;;;35.70;43.50;;;;;;5055479;28;20029;-69
2023/06/26 11:37:31;;;;;;;3.88;3.55;;;35.20;43.40;;;;;;5055298;28;20029;-69
2023/06/26 11:39:57;;;;;;;3.65;3.35;;;35.00;43.40;;;;;;5055448;28;20029;-69
2023/06/26 11:42:25;;;;;;;5.10;3.60;;;34.60;44.60;;;;;;5055669;28;20032;-69
2023/06/26 11:44:52;;;;;;;4.00;3.70;;;34.20;44.20;;;;;;5037539;28;20025;-69
2023/06/26 11:47:19;;;;;;;6.32;3.30;;;34.50;44.60;;;;;;5054693;28;20298;-69
2023/06/26 11:49:47;;;;;;;3.38;3.08;;;35.20;44.70;;;;;;5054856;28;20072;-69
2023/06/26 11:52:14;;;;;;;4.00;3.35;;;35.40;44.60;;;;;;5037438;28;20380;-70
2023/06/26 11:54:40;;;;;;;3.50;3.30;;;35.90;43.60;;;;;;5054806;28;20048;-70
2023/06/26 11:57:06;;;;;;;4.00;3.42;;;36.50;43.00;;;;;;5054928;28;20017;-70
2023/06/26 11:59:41;;;;;;;3.60;3.38;;;37.10;42.90;;;;;;5037588;28;20033;-69
2023/06/26 12:02:09;;;;;;;3.50;3.25;;;37.90;42.00;;;;;;5054626;28;20550;-70
2023/06/26 12:04:38;;;;;;;3.67;3.40;;;38.70;40.70;;;;;;5054887;28;20037;-70
2023/06/26 12:07:07;;;;;;;3.28;2.95;;;39.00;39.90;;;;;;5055024;28;20286;-70
2023/06/26 12:09:38;;;;;;;3.67;3.30;;;39.10;39.30;;;;;;5036537;28;20029;-70
2023/06/26 12:12:04;;;;;;;3.60;3.30;;;38.30;39.50;;;;;;5054999;28;20020;-70
2023/06/26 12:14:31;;;;;;;3.20;3.00;;;37.80;40.30;;;;;;5036842;28;20025;-70
2023/06/26 12:17:04;;;;;;;3.47;3.17;;;37.30;40.50;;;;;;5054302;28;20032;-70
2023/06/26 12:19:30;;;;;;;5.90;3.08;;;37.70;40.20;;;;;;5054900;28;20036;-70
2023/06/26 12:21:56;;;;;;;4.97;3.28;;;38.10;40.30;;;;;;5054484;28;20033;-70
2023/06/26 12:24:23;;;;;;;4.35;3.45;;;38.20;39.60;;;;;;5054155;28;20476;-70
2023/06/26 12:26:56;;;;;;;3.20;3.00;;;38.80;39.70;;;;;;5054713;28;20036;-70
2023/06/26 12:29:31;;;;;;;5.00;3.05;;;38.90;38.40;;;;;;5036497;28;20037;-70
2023/06/26 12:31:56;;;;;;;3.25;2.90;;;38.80;39.30;;;;;;5036577;28;20029;-70
2023/06/26 12:34:33;;;;;;;3.33;3.03;;;39.30;39.50;;;;;;5054285;28;20055;-70
2023/06/26 12:37:05;;;;;;;4.30;3.63;;;39.60;39.00;;;;;;5054054;28;20469;-70
2023/06/26 12:39:55;;;;;;;5.20;3.55;;;39.50;39.00;;;;;;5054697;28;20021;-71
2023/06/26 12:42:23;;;;;;;3.83;3.60;;;39.60;38.90;;;;;;5036694;28;20035;-71
2023/06/26 12:44:49;;;;;;;5.15;3.40;;;39.30;38.70;;;;;;5054377;28;20104;-70